sensor_id;sensor_type;location;lat;lon;timestamp;P1;durP1;ratioP1;P2;durP2;ratioP2
20861;SDS011;10591;52.532;13.348;2022-11-09T00:01:56;3.75;;;2.92;;
20861;SDS011;10591;52.532;13.348;2022-11-09T00:04:26;4.58;;;2.75;;
20861;SDS011;10591;52.532;13.348;2022-11-09T00:06:56;3.67;;;3.17;;
20861;SDS011;10591;52.532;13.348;2022-11-09T00:09:27;3.17;;;2.87;;
20861;SDS011;10591;52.532;13.348;2022-11-09T00:11:57;3.42;;;2.80;;
20861;SDS011;10591;52.532;13.348;2022-11-09T00:14:30;4.12;;;3.00;;
20861;SDS011;10591;52.532;13.348;2022-11-09T00:17:00;3.50;;;2.83;;
20861;SDS011;10591;52.532;13.348;2022-11-09T00:19:30;4.05;;;2.83;;
20861;SDS011;10591;52.532;13.348;2022-11-09T00:22:01;3.67;;;2.95;;
20861;SDS011;10591;52.532;13.348;2022-11-09T00:24:31;3.15;;;2.85;;
20861;SDS011;10591;52.532;13.348;2022-11-09T00:27:02;3.72;;;3.12;;
20861;SDS011;10591;52.532;13.348;2022-11-09T00:29:32;2.90;;;2.70;;
20861;SDS011;10591;52.532;13.348;2022-11-09T00:32:03;5.08;;;3.02;;
20861;SDS011;10591;52.532;13.348;2022-11-09T00:34:33;3.52;;;3.22;;
20861;SDS011;10591;52.532;13.348;2022-11-09T00:37:04;3.35;;;3.02;;
20861;SDS011;10591;52.532;13.348;2022-11-09T00:39:34;3.85;;;3.30;;
20861;SDS011;10591;52.532;13.348;2022-11-09T00:42:05;4.12;;;2.70;;
20861;SDS011;10591;52.532;13.348;2022-11-09T00:44:35;4.65;;;2.75;;
20861;SDS011;10591;52.532;13.348;2022-11-09T00:47:05;5.10;;;2.80;;
20861;SDS011;10591;52.532;13.348;2022-11-09T00:49:36;3.50;;;2.80;;
20861;SDS011;10591;52.532;13.348;2022-11-09T00:52:06;3.50;;;2.80;;
20861;SDS011;10591;52.532;13.348;2022-11-09T00:54:37;3.72;;;2.90;;
20861;SDS011;10591;52.532;13.348;2022-11-09T00:57:07;4.60;;;3.00;;
20861;SDS011;10591;52.532;13.348;2022-11-09T00:59:38;3.87;;;3.10;;
20861;SDS011;10591;52.532;13.348;2022-11-09T01:02:08;4.45;;;2.65;;
20861;SDS011;10591;52.532;13.348;2022-11-09T01:04:39;3.02;;;2.65;;
20861;SDS011;10591;52.532;13.348;2022-11-09T01:07:09;3.30;;;3.00;;
20861;SDS011;10591;52.532;13.348;2022-11-09T01:09:39;3.37;;;2.90;;
20861;SDS011;10591;52.532;13.348;2022-11-09T01:12:10;3.37;;;2.90;;
20861;SDS011;10591;52.532;13.348;2022-11-09T01:14:42;3.20;;;2.90;;
20861;SDS011;10591;52.532;13.348;2022-11-09T01:17:12;3.25;;;2.95;;
20861;SDS011;10591;52.532;13.348;2022-11-09T01:19:43;3.37;;;2.90;;
20861;SDS011;10591;52.532;13.348;2022-11-09T01:22:13;3.45;;;2.70;;
20861;SDS011;10591;52.532;13.348;2022-11-09T01:24:44;3.45;;;2.92;;
20861;SDS011;10591;52.532;13.348;2022-11-09T01:27:15;3.77;;;2.85;;
20861;SDS011;10591;52.532;13.348;2022-11-09T01:29:45;4.42;;;3.08;;
20861;SDS011;10591;52.532;13.348;2022-11-09T01:32:15;4.95;;;2.77;;
20861;SDS011;10591;52.532;13.348;2022-11-09T01:34:46;3.00;;;2.70;;
20861;SDS011;10591;52.532;13.348;2022-11-09T01:37:16;4.47;;;2.70;;
20861;SDS011;10591;52.532;13.348;2022-11-09T01:39:47;3.17;;;2.87;;
20861;SDS011;10591;52.532;13.348;2022-11-09T01:42:23;2.90;;;2.60;;
20861;SDS011;10591;52.532;13.348;2022-11-09T01:47:48;4.83;;;2.87;;
20861;SDS011;10591;52.532;13.348;2022-11-09T01:50:24;3.02;;;2.80;;
20861;SDS011;10591;52.532;13.348;2022-11-09T01:52:54;5.10;;;2.90;;
20861;SDS011;10591;52.532;13.348;2022-11-09T01:55:24;4.03;;;3.00;;
20861;SDS011;10591;52.532;13.348;2022-11-09T01:57:57;4.10;;;3.20;;
20861;SDS011;10591;52.532;13.348;2022-11-09T02:00:37;3.62;;;2.42;;
20861;SDS011;10591;52.532;13.348;2022-11-09T02:03:16;3.62;;;2.80;;
20861;SDS011;10591;52.532;13.348;2022-11-09T02:05:50;3.20;;;2.90;;
20861;SDS011;10591;52.532;13.348;2022-11-09T02:08:22;2.90;;;2.50;;
20861;SDS011;10591;52.532;13.348;2022-11-09T02:13:30;6.33;;;2.92;;
20861;SDS011;10591;52.532;13.348;2022-11-09T02:16:02;4.50;;;2.80;;
20861;SDS011;10591;52.532;13.348;2022-11-09T02:18:33;2.98;;;2.75;;
20861;SDS011;10591;52.532;13.348;2022-11-09T02:21:04;3.62;;;2.70;;
20861;SDS011;10591;52.532;13.348;2022-11-09T02:23:35;3.67;;;2.83;;
20861;SDS011;10591;52.532;13.348;2022-11-09T02:26:06;3.12;;;2.83;;
20861;SDS011;10591;52.532;13.348;2022-11-09T02:28:39;3.42;;;3.00;;
20861;SDS011;10591;52.532;13.348;2022-11-09T02:31:11;4.33;;;2.83;;
20861;SDS011;10591;52.532;13.348;2022-11-09T02:36:23;4.28;;;3.15;;
20861;SDS011;10591;52.532;13.348;2022-11-09T02:38:54;3.70;;;2.90;;
20861;SDS011;10591;52.532;13.348;2022-11-09T02:41:25;3.75;;;2.80;;
20861;SDS011;10591;52.532;13.348;2022-11-09T02:43:56;3.35;;;2.77;;
20861;SDS011;10591;52.532;13.348;2022-11-09T02:46:33;3.12;;;2.80;;
20861;SDS011;10591;52.532;13.348;2022-11-09T02:49:05;3.02;;;2.70;;
20861;SDS011;10591;52.532;13.348;2022-11-09T02:51:35;2.80;;;2.60;;
20861;SDS011;10591;52.532;13.348;2022-11-09T02:54:06;4.17;;;3.08;;
20861;SDS011;10591;52.532;13.348;2022-11-09T02:56:36;6.75;;;3.12;;
20861;SDS011;10591;52.532;13.348;2022-11-09T02:59:06;3.00;;;2.60;;
20861;SDS011;10591;52.532;13.348;2022-11-09T03:01:37;4.70;;;2.90;;
20861;SDS011;10591;52.532;13.348;2022-11-09T03:04:07;3.97;;;2.80;;
20861;SDS011;10591;52.532;13.348;2022-11-09T03:06:38;3.17;;;2.87;;
20861;SDS011;10591;52.532;13.348;2022-11-09T03:09:11;3.47;;;2.80;;
20861;SDS011;10591;52.532;13.348;2022-11-09T03:11:41;5.22;;;2.87;;
20861;SDS011;10591;52.532;13.348;2022-11-09T03:14:12;4.00;;;2.95;;
20861;SDS011;10591;52.532;13.348;2022-11-09T03:16:42;3.40;;;2.52;;
20861;SDS011;10591;52.532;13.348;2022-11-09T03:19:15;3.80;;;2.73;;
20861;SDS011;10591;52.532;13.348;2022-11-09T03:21:45;2.95;;;2.55;;
20861;SDS011;10591;52.532;13.348;2022-11-09T03:24:16;3.55;;;2.90;;
20861;SDS011;10591;52.532;13.348;2022-11-09T03:26:46;3.60;;;2.95;;
20861;SDS011;10591;52.532;13.348;2022-11-09T03:29:16;3.27;;;2.72;;
20861;SDS011;10591;52.532;13.348;2022-11-09T03:31:47;4.78;;;2.95;;
20861;SDS011;10591;52.532;13.348;2022-11-09T03:34:17;3.85;;;2.87;;
20861;SDS011;10591;52.532;13.348;2022-11-09T03:36:48;2.80;;;2.60;;
20861;SDS011;10591;52.532;13.348;2022-11-09T03:39:18;3.95;;;2.87;;
20861;SDS011;10591;52.532;13.348;2022-11-09T03:41:48;3.20;;;2.62;;
20861;SDS011;10591;52.532;13.348;2022-11-09T03:44:19;2.70;;;2.50;;
20861;SDS011;10591;52.532;13.348;2022-11-09T03:46:50;3.17;;;2.80;;
20861;SDS011;10591;52.532;13.348;2022-11-09T03:49:20;4.45;;;3.25;;
20861;SDS011;10591;52.532;13.348;2022-11-09T03:51:51;3.05;;;2.70;;
20861;SDS011;10591;52.532;13.348;2022-11-09T03:54:21;3.00;;;2.70;;
20861;SDS011;10591;52.532;13.348;2022-11-09T03:56:52;3.40;;;3.05;;
20861;SDS011;10591;52.532;13.348;2022-11-09T03:59:23;3.33;;;2.80;;
20861;SDS011;10591;52.532;13.348;2022-11-09T04:01:54;5.30;;;2.98;;
20861;SDS011;10591;52.532;13.348;2022-11-09T04:04:24;3.37;;;3.05;;
20861;SDS011;10591;52.532;13.348;2022-11-09T04:06:55;4.50;;;2.80;;
20861;SDS011;10591;52.532;13.348;2022-11-09T04:09:25;3.02;;;2.70;;
20861;SDS011;10591;52.532;13.348;2022-11-09T04:11:56;4.97;;;2.58;;
20861;SDS011;10591;52.532;13.348;2022-11-09T04:14:26;4.80;;;2.87;;
20861;SDS011;10591;52.532;13.348;2022-11-09T04:16:56;3.12;;;2.75;;
20861;SDS011;10591;52.532;13.348;2022-11-09T04:19:27;3.22;;;2.50;;
20861;SDS011;10591;52.532;13.348;2022-11-09T04:22:00;3.47;;;2.75;;
20861;SDS011;10591;52.532;13.348;2022-11-09T04:24:30;3.35;;;2.77;;
20861;SDS011;10591;52.532;13.348;2022-11-09T04:27:01;3.50;;;2.98;;
20861;SDS011;10591;52.532;13.348;2022-11-09T04:29:31;5.78;;;3.20;;
20861;SDS011;10591;52.532;13.348;2022-11-09T04:32:02;3.03;;;2.73;;
20861;SDS011;10591;52.532;13.348;2022-11-09T04:34:32;2.90;;;2.70;;
20861;SDS011;10591;52.532;13.348;2022-11-09T04:37:03;3.12;;;2.83;;
20861;SDS011;10591;52.532;13.348;2022-11-09T04:39:33;2.95;;;2.40;;
20861;SDS011;10591;52.532;13.348;2022-11-09T04:42:04;5.85;;;4.10;;
20861;SDS011;10591;52.532;13.348;2022-11-09T04:44:35;4.90;;;2.98;;
20861;SDS011;10591;52.532;13.348;2022-11-09T04:47:05;2.95;;;2.70;;
20861;SDS011;10591;52.532;13.348;2022-11-09T04:49:35;2.95;;;2.60;;
20861;SDS011;10591;52.532;13.348;2022-11-09T04:52:06;3.67;;;2.72;;
20861;SDS011;10591;52.532;13.348;2022-11-09T04:54:36;3.20;;;2.90;;
20861;SDS011;10591;52.532;13.348;2022-11-09T04:57:07;3.22;;;2.92;;
20861;SDS011;10591;52.532;13.348;2022-11-09T04:59:37;3.72;;;2.70;;
20861;SDS011;10591;52.532;13.348;2022-11-09T05:02:08;2.72;;;2.52;;
20861;SDS011;10591;52.532;13.348;2022-11-09T05:04:38;3.45;;;2.83;;
20861;SDS011;10591;52.532;13.348;2022-11-09T05:07:10;3.02;;;2.72;;
20861;SDS011;10591;52.532;13.348;2022-11-09T05:09:41;4.15;;;3.00;;
20861;SDS011;10591;52.532;13.348;2022-11-09T05:12:11;5.10;;;3.22;;
20861;SDS011;10591;52.532;13.348;2022-11-09T05:14:42;3.42;;;3.02;;
20861;SDS011;10591;52.532;13.348;2022-11-09T05:17:12;3.52;;;2.65;;
20861;SDS011;10591;52.532;13.348;2022-11-09T05:19:42;3.25;;;2.77;;
20861;SDS011;10591;52.532;13.348;2022-11-09T05:22:13;3.55;;;3.12;;
20861;SDS011;10591;52.532;13.348;2022-11-09T05:25:01;3.65;;;3.20;;
20861;SDS011;10591;52.532;13.348;2022-11-09T05:27:32;3.42;;;3.00;;
20861;SDS011;10591;52.532;13.348;2022-11-09T05:30:02;4.35;;;3.40;;
20861;SDS011;10591;52.532;13.348;2022-11-09T05:32:34;3.17;;;2.98;;
20861;SDS011;10591;52.532;13.348;2022-11-09T05:35:06;4.62;;;3.12;;
20861;SDS011;10591;52.532;13.348;2022-11-09T05:37:38;3.40;;;3.12;;
20861;SDS011;10591;52.532;13.348;2022-11-09T05:40:09;4.30;;;3.37;;
20861;SDS011;10591;52.532;13.348;2022-11-09T05:42:40;3.42;;;3.00;;
20861;SDS011;10591;52.532;13.348;2022-11-09T05:45:11;4.30;;;3.10;;
20861;SDS011;10591;52.532;13.348;2022-11-09T05:47:45;3.75;;;3.20;;
20861;SDS011;10591;52.532;13.348;2022-11-09T05:50:15;3.70;;;3.20;;
20861;SDS011;10591;52.532;13.348;2022-11-09T05:52:46;4.22;;;3.17;;
20861;SDS011;10591;52.532;13.348;2022-11-09T05:55:16;3.40;;;3.08;;
20861;SDS011;10591;52.532;13.348;2022-11-09T05:57:47;5.78;;;3.55;;
20861;SDS011;10591;52.532;13.348;2022-11-09T06:00:17;3.90;;;3.10;;
20861;SDS011;10591;52.532;13.348;2022-11-09T06:02:48;3.87;;;3.02;;
20861;SDS011;10591;52.532;13.348;2022-11-09T06:05:19;4.25;;;3.20;;
20861;SDS011;10591;52.532;13.348;2022-11-09T06:07:51;4.67;;;3.50;;
20861;SDS011;10591;52.532;13.348;2022-11-09T06:10:21;3.72;;;3.45;;
20861;SDS011;10591;52.532;13.348;2022-11-09T06:12:52;3.50;;;3.20;;
20861;SDS011;10591;52.532;13.348;2022-11-09T06:15:22;3.45;;;3.15;;
20861;SDS011;10591;52.532;13.348;2022-11-09T06:17:53;4.62;;;3.20;;
20861;SDS011;10591;52.532;13.348;2022-11-09T06:20:24;4.70;;;3.50;;
20861;SDS011;10591;52.532;13.348;2022-11-09T06:22:57;3.70;;;3.10;;
20861;SDS011;10591;52.532;13.348;2022-11-09T06:25:31;4.87;;;3.10;;
20861;SDS011;10591;52.532;13.348;2022-11-09T06:28:02;4.62;;;3.50;;
20861;SDS011;10591;52.532;13.348;2022-11-09T06:30:32;5.70;;;3.47;;
20861;SDS011;10591;52.532;13.348;2022-11-09T06:33:03;4.50;;;3.37;;
20861;SDS011;10591;52.532;13.348;2022-11-09T06:35:34;5.13;;;4.10;;
20861;SDS011;10591;52.532;13.348;2022-11-09T06:38:05;5.45;;;3.47;;
20861;SDS011;10591;52.532;13.348;2022-11-09T06:40:37;3.17;;;2.87;;
20861;SDS011;10591;52.532;13.348;2022-11-09T06:43:07;3.87;;;3.45;;
20861;SDS011;10591;52.532;13.348;2022-11-09T06:45:38;4.53;;;3.55;;
20861;SDS011;10591;52.532;13.348;2022-11-09T06:48:09;5.42;;;3.50;;
20861;SDS011;10591;52.532;13.348;2022-11-09T06:50:40;4.87;;;3.35;;
20861;SDS011;10591;52.532;13.348;2022-11-09T06:53:11;5.33;;;3.58;;
20861;SDS011;10591;52.532;13.348;2022-11-09T06:55:43;4.22;;;3.50;;
20861;SDS011;10591;52.532;13.348;2022-11-09T06:58:15;4.45;;;3.90;;
20861;SDS011;10591;52.532;13.348;2022-11-09T07:00:47;7.03;;;3.87;;
20861;SDS011;10591;52.532;13.348;2022-11-09T07:03:18;4.42;;;4.03;;
20861;SDS011;10591;52.532;13.348;2022-11-09T07:05:51;4.50;;;4.08;;
20861;SDS011;10591;52.532;13.348;2022-11-09T07:08:21;7.33;;;3.98;;
20861;SDS011;10591;52.532;13.348;2022-11-09T07:10:52;5.08;;;4.17;;
20861;SDS011;10591;52.532;13.348;2022-11-09T07:13:22;4.78;;;4.20;;
20861;SDS011;10591;52.532;13.348;2022-11-09T07:15:53;5.53;;;4.28;;
20861;SDS011;10591;52.532;13.348;2022-11-09T07:18:23;7.78;;;4.40;;
20861;SDS011;10591;52.532;13.348;2022-11-09T07:20:54;8.23;;;4.20;;
20861;SDS011;10591;52.532;13.348;2022-11-09T07:23:24;5.70;;;3.95;;
20861;SDS011;10591;52.532;13.348;2022-11-09T07:25:56;5.72;;;4.58;;
20861;SDS011;10591;52.532;13.348;2022-11-09T07:28:27;8.05;;;4.50;;
20861;SDS011;10591;52.532;13.348;2022-11-09T07:30:57;5.87;;;4.92;;
20861;SDS011;10591;52.532;13.348;2022-11-09T07:33:28;8.00;;;5.10;;
20861;SDS011;10591;52.532;13.348;2022-11-09T07:36:01;5.90;;;5.17;;
20861;SDS011;10591;52.532;13.348;2022-11-09T07:38:32;6.83;;;5.70;;
20861;SDS011;10591;52.532;13.348;2022-11-09T07:41:03;9.23;;;5.58;;
20861;SDS011;10591;52.532;13.348;2022-11-09T07:43:33;10.05;;;5.35;;
20861;SDS011;10591;52.532;13.348;2022-11-09T07:46:04;7.45;;;6.15;;
20861;SDS011;10591;52.532;13.348;2022-11-09T07:48:34;8.53;;;5.67;;
20861;SDS011;10591;52.532;13.348;2022-11-09T07:51:05;6.37;;;5.72;;
20861;SDS011;10591;52.532;13.348;2022-11-09T07:53:35;10.70;;;6.70;;
20861;SDS011;10591;52.532;13.348;2022-11-09T07:56:06;9.45;;;6.50;;
20861;SDS011;10591;52.532;13.348;2022-11-09T07:58:36;8.65;;;6.40;;
20861;SDS011;10591;52.532;13.348;2022-11-09T08:01:07;10.23;;;6.40;;
20861;SDS011;10591;52.532;13.348;2022-11-09T08:03:43;7.95;;;6.87;;
20861;SDS011;10591;52.532;13.348;2022-11-09T08:06:30;8.85;;;6.80;;
20861;SDS011;10591;52.532;13.348;2022-11-09T08:08:56;9.40;;;6.90;;
20861;SDS011;10591;52.532;13.348;2022-11-09T08:11:26;7.10;;;6.30;;
20861;SDS011;10591;52.532;13.348;2022-11-09T08:13:57;8.03;;;7.03;;
20861;SDS011;10591;52.532;13.348;2022-11-09T08:16:27;8.03;;;6.50;;
20861;SDS011;10591;52.532;13.348;2022-11-09T08:18:59;10.10;;;6.25;;
20861;SDS011;10591;52.532;13.348;2022-11-09T08:21:30;11.57;;;7.17;;
20861;SDS011;10591;52.532;13.348;2022-11-09T08:24:11;9.23;;;6.05;;
20861;SDS011;10591;52.532;13.348;2022-11-09T08:26:42;8.58;;;5.97;;
20861;SDS011;10591;52.532;13.348;2022-11-09T08:29:12;8.63;;;6.70;;
20861;SDS011;10591;52.532;13.348;2022-11-09T08:31:43;18.37;;;6.83;;
20861;SDS011;10591;52.532;13.348;2022-11-09T08:34:13;7.70;;;6.05;;
20861;SDS011;10591;52.532;13.348;2022-11-09T08:36:44;8.97;;;6.30;;
20861;SDS011;10591;52.532;13.348;2022-11-09T08:39:15;8.28;;;6.35;;
20861;SDS011;10591;52.532;13.348;2022-11-09T08:41:45;11.30;;;6.75;;
20861;SDS011;10591;52.532;13.348;2022-11-09T08:44:15;9.15;;;6.35;;
20861;SDS011;10591;52.532;13.348;2022-11-09T08:46:46;15.03;;;10.82;;
20861;SDS011;10591;52.532;13.348;2022-11-09T08:49:16;16.97;;;12.07;;
20861;SDS011;10591;52.532;13.348;2022-11-09T08:51:47;28.80;;;15.38;;
20861;SDS011;10591;52.532;13.348;2022-11-09T08:54:17;18.98;;;12.65;;
20861;SDS011;10591;52.532;13.348;2022-11-09T08:56:47;27.90;;;17.52;;
20861;SDS011;10591;52.532;13.348;2022-11-09T08:59:18;14.23;;;8.68;;
20861;SDS011;10591;52.532;13.348;2022-11-09T09:01:48;19.07;;;12.15;;
20861;SDS011;10591;52.532;13.348;2022-11-09T09:04:19;17.73;;;10.72;;
20861;SDS011;10591;52.532;13.348;2022-11-09T09:06:49;13.48;;;8.60;;
20861;SDS011;10591;52.532;13.348;2022-11-09T09:09:20;11.03;;;7.65;;
20861;SDS011;10591;52.532;13.348;2022-11-09T09:11:51;11.20;;;6.65;;
20861;SDS011;10591;52.532;13.348;2022-11-09T09:14:21;7.78;;;6.33;;
20861;SDS011;10591;52.532;13.348;2022-11-09T09:16:52;7.67;;;6.30;;
20861;SDS011;10591;52.532;13.348;2022-11-09T09:19:22;10.98;;;8.75;;
20861;SDS011;10591;52.532;13.348;2022-11-09T09:21:53;8.50;;;7.08;;
20861;SDS011;10591;52.532;13.348;2022-11-09T09:24:23;7.87;;;5.87;;
20861;SDS011;10591;52.532;13.348;2022-11-09T09:26:55;8.00;;;6.00;;
20861;SDS011;10591;52.532;13.348;2022-11-09T09:29:25;7.87;;;5.65;;
20861;SDS011;10591;52.532;13.348;2022-11-09T09:31:56;8.03;;;6.12;;
20861;SDS011;10591;52.532;13.348;2022-11-09T09:34:26;26.23;;;16.10;;
20861;SDS011;10591;52.532;13.348;2022-11-09T09:36:57;9.05;;;6.92;;
20861;SDS011;10591;52.532;13.348;2022-11-09T09:39:27;8.90;;;6.85;;
20861;SDS011;10591;52.532;13.348;2022-11-09T09:41:58;19.12;;;13.80;;
20861;SDS011;10591;52.532;13.348;2022-11-09T09:44:33;15.00;;;10.13;;
20861;SDS011;10591;52.532;13.348;2022-11-09T09:47:14;8.28;;;5.92;;
20861;SDS011;10591;52.532;13.348;2022-11-09T09:49:57;15.15;;;10.65;;
20861;SDS011;10591;52.532;13.348;2022-11-09T09:52:39;10.15;;;7.60;;
20861;SDS011;10591;52.532;13.348;2022-11-09T09:55:18;20.70;;;13.78;;
20861;SDS011;10591;52.532;13.348;2022-11-09T09:57:51;8.43;;;7.25;;
20861;SDS011;10591;52.532;13.348;2022-11-09T10:00:26;29.67;;;17.45;;
20861;SDS011;10591;52.532;13.348;2022-11-09T10:02:56;14.33;;;9.28;;
20861;SDS011;10591;52.532;13.348;2022-11-09T10:05:33;10.60;;;7.33;;
20861;SDS011;10591;52.532;13.348;2022-11-09T10:11:05;12.23;;;9.78;;
20861;SDS011;10591;52.532;13.348;2022-11-09T10:16:34;6.20;;;5.45;;
20861;SDS011;10591;52.532;13.348;2022-11-09T10:19:09;6.37;;;5.40;;
20861;SDS011;10591;52.532;13.348;2022-11-09T10:22:04;4.83;;;4.33;;
20861;SDS011;10591;52.532;13.348;2022-11-09T10:29:57;8.35;;;6.10;;
20861;SDS011;10591;52.532;13.348;2022-11-09T10:32:32;5.95;;;5.08;;
20861;SDS011;10591;52.532;13.348;2022-11-09T10:35:13;5.80;;;5.10;;
20861;SDS011;10591;52.532;13.348;2022-11-09T10:37:47;9.38;;;7.05;;
20861;SDS011;10591;52.532;13.348;2022-11-09T10:40:40;4.80;;;4.40;;
20861;SDS011;10591;52.532;13.348;2022-11-09T10:43:08;5.80;;;5.25;;
20861;SDS011;10591;52.532;13.348;2022-11-09T10:45:42;7.85;;;5.35;;
20861;SDS011;10591;52.532;13.348;2022-11-09T10:48:24;6.20;;;4.83;;
20861;SDS011;10591;52.532;13.348;2022-11-09T10:50:49;5.20;;;4.70;;
20861;SDS011;10591;52.532;13.348;2022-11-09T10:53:22;4.75;;;4.12;;
20861;SDS011;10591;52.532;13.348;2022-11-09T10:58:48;5.08;;;4.30;;
20861;SDS011;10591;52.532;13.348;2022-11-09T11:01:21;6.62;;;4.30;;
20861;SDS011;10591;52.532;13.348;2022-11-09T11:03:54;5.35;;;3.83;;
20861;SDS011;10591;52.532;13.348;2022-11-09T11:06:26;4.58;;;4.17;;
20861;SDS011;10591;52.532;13.348;2022-11-09T11:11:36;4.05;;;3.65;;
20861;SDS011;10591;52.532;13.348;2022-11-09T11:16:53;4.17;;;3.42;;
20861;SDS011;10591;52.532;13.348;2022-11-09T11:19:34;4.30;;;3.87;;
20861;SDS011;10591;52.532;13.348;2022-11-09T11:22:14;3.58;;;3.27;;
20861;SDS011;10591;52.532;13.348;2022-11-09T11:25:00;4.42;;;3.50;;
20861;SDS011;10591;52.532;13.348;2022-11-09T11:27:29;3.50;;;3.20;;
20861;SDS011;10591;52.532;13.348;2022-11-09T11:30:18;3.22;;;2.92;;
20861;SDS011;10591;52.532;13.348;2022-11-09T11:32:51;4.08;;;3.30;;
20861;SDS011;10591;52.532;13.348;2022-11-09T11:35:33;5.00;;;3.42;;
20861;SDS011;10591;52.532;13.348;2022-11-09T11:38:13;4.67;;;2.85;;
20861;SDS011;10591;52.532;13.348;2022-11-09T11:40:55;3.35;;;2.80;;
20861;SDS011;10591;52.532;13.348;2022-11-09T11:43:34;3.90;;;2.60;;
20861;SDS011;10591;52.532;13.348;2022-11-09T11:49:05;3.95;;;3.00;;
20861;SDS011;10591;52.532;13.348;2022-11-09T11:52:08;3.62;;;3.20;;
20861;SDS011;10591;52.532;13.348;2022-11-09T11:58:02;3.98;;;2.72;;
20861;SDS011;10591;52.532;13.348;2022-11-09T12:00:28;2.72;;;2.50;;
20861;SDS011;10591;52.532;13.348;2022-11-09T12:03:06;3.22;;;2.92;;
20861;SDS011;10591;52.532;13.348;2022-11-09T12:05:46;3.12;;;2.80;;
20861;SDS011;10591;52.532;13.348;2022-11-09T12:11:14;2.87;;;2.55;;
20861;SDS011;10591;52.532;13.348;2022-11-09T12:19:16;5.72;;;4.30;;
20861;SDS011;10591;52.532;13.348;2022-11-09T12:22:14;3.90;;;3.50;;
20861;SDS011;10591;52.532;13.348;2022-11-09T12:24:52;5.80;;;3.25;;
20861;SDS011;10591;52.532;13.348;2022-11-09T12:30:25;4.12;;;2.55;;
20861;SDS011;10591;52.532;13.348;2022-11-09T12:33:03;3.42;;;3.10;;
20861;SDS011;10591;52.532;13.348;2022-11-09T12:35:31;7.50;;;4.33;;
20861;SDS011;10591;52.532;13.348;2022-11-09T12:38:11;4.70;;;3.65;;
20861;SDS011;10591;52.532;13.348;2022-11-09T12:40:43;5.75;;;3.92;;
20861;SDS011;10591;52.532;13.348;2022-11-09T12:43:29;9.25;;;5.47;;
20861;SDS011;10591;52.532;13.348;2022-11-09T12:46:02;18.87;;;14.38;;
20861;SDS011;10591;52.532;13.348;2022-11-09T12:48:34;14.85;;;10.82;;
20861;SDS011;10591;52.532;13.348;2022-11-09T12:51:05;4.08;;;3.00;;
20861;SDS011;10591;52.532;13.348;2022-11-09T12:53:37;4.15;;;2.65;;
20861;SDS011;10591;52.532;13.348;2022-11-09T12:56:22;9.05;;;6.58;;
20861;SDS011;10591;52.532;13.348;2022-11-09T12:59:12;7.35;;;6.65;;
20861;SDS011;10591;52.532;13.348;2022-11-09T13:01:43;4.83;;;3.72;;
20861;SDS011;10591;52.532;13.348;2022-11-09T13:04:17;3.37;;;2.80;;
20861;SDS011;10591;52.532;13.348;2022-11-09T13:09:39;3.52;;;2.75;;
20861;SDS011;10591;52.532;13.348;2022-11-09T13:12:32;2.87;;;2.50;;
20861;SDS011;10591;52.532;13.348;2022-11-09T13:18:01;8.53;;;7.35;;
20861;SDS011;10591;52.532;13.348;2022-11-09T13:23:32;4.53;;;2.50;;
20861;SDS011;10591;52.532;13.348;2022-11-09T13:25:59;2.85;;;2.47;;
20861;SDS011;10591;52.532;13.348;2022-11-09T13:31:03;2.62;;;2.42;;
20861;SDS011;10591;52.532;13.348;2022-11-09T13:33:35;2.55;;;2.35;;
20861;SDS011;10591;52.532;13.348;2022-11-09T13:38:40;4.20;;;2.80;;
20861;SDS011;10591;52.532;13.348;2022-11-09T13:44:06;5.03;;;3.87;;
20861;SDS011;10591;52.532;13.348;2022-11-09T13:46:54;7.35;;;4.90;;
20861;SDS011;10591;52.532;13.348;2022-11-09T13:49:48;3.00;;;2.65;;
20861;SDS011;10591;52.532;13.348;2022-11-09T13:55:28;4.67;;;3.98;;
20861;SDS011;10591;52.532;13.348;2022-11-09T13:57:56;3.70;;;3.02;;
20861;SDS011;10591;52.532;13.348;2022-11-09T14:00:29;21.23;;;15.65;;
20861;SDS011;10591;52.532;13.348;2022-11-09T14:03:00;15.20;;;9.70;;
20861;SDS011;10591;52.532;13.348;2022-11-09T14:05:34;10.55;;;7.15;;
20861;SDS011;10591;52.532;13.348;2022-11-09T14:08:08;9.43;;;8.05;;
20861;SDS011;10591;52.532;13.348;2022-11-09T14:10:44;4.33;;;3.62;;
20861;SDS011;10591;52.532;13.348;2022-11-09T14:13:45;8.05;;;3.42;;
20861;SDS011;10591;52.532;13.348;2022-11-09T14:21:43;5.60;;;3.98;;
20861;SDS011;10591;52.532;13.348;2022-11-09T14:24:16;9.48;;;6.78;;
20861;SDS011;10591;52.532;13.348;2022-11-09T14:26:58;28.32;;;10.75;;
20861;SDS011;10591;52.532;13.348;2022-11-09T14:29:30;24.82;;;16.57;;
20861;SDS011;10591;52.532;13.348;2022-11-09T14:35:10;68.33;;;35.98;;
20861;SDS011;10591;52.532;13.348;2022-11-09T14:37:43;140.05;;;68.28;;
20861;SDS011;10591;52.532;13.348;2022-11-09T14:40:23;76.17;;;36.35;;
20861;SDS011;10591;52.532;13.348;2022-11-09T14:45:52;39.75;;;20.65;;
20861;SDS011;10591;52.532;13.348;2022-11-09T14:48:27;19.75;;;10.63;;
20861;SDS011;10591;52.532;13.348;2022-11-09T14:51:00;6.97;;;4.75;;
20861;SDS011;10591;52.532;13.348;2022-11-09T14:53:36;7.47;;;3.95;;
20861;SDS011;10591;52.532;13.348;2022-11-09T14:56:09;9.25;;;5.05;;
20861;SDS011;10591;52.532;13.348;2022-11-09T14:58:42;5.42;;;4.30;;
20861;SDS011;10591;52.532;13.348;2022-11-09T15:04:06;6.53;;;4.55;;
20861;SDS011;10591;52.532;13.348;2022-11-09T15:06:54;5.60;;;4.37;;
20861;SDS011;10591;52.532;13.348;2022-11-09T15:09:41;5.78;;;4.10;;
20861;SDS011;10591;52.532;13.348;2022-11-09T15:12:16;4.58;;;3.10;;
20861;SDS011;10591;52.532;13.348;2022-11-09T15:14:49;7.00;;;3.80;;
20861;SDS011;10591;52.532;13.348;2022-11-09T15:17:30;7.58;;;6.60;;
20861;SDS011;10591;52.532;13.348;2022-11-09T15:22:56;8.90;;;8.00;;
20861;SDS011;10591;52.532;13.348;2022-11-09T15:25:32;23.67;;;17.62;;
20861;SDS011;10591;52.532;13.348;2022-11-09T15:33:28;5.45;;;4.80;;
20861;SDS011;10591;52.532;13.348;2022-11-09T15:36:25;6.00;;;5.40;;
20861;SDS011;10591;52.532;13.348;2022-11-09T15:39:02;6.05;;;5.28;;
20861;SDS011;10591;52.532;13.348;2022-11-09T15:41:43;7.28;;;5.92;;
20861;SDS011;10591;52.532;13.348;2022-11-09T15:44:13;21.82;;;16.17;;
20861;SDS011;10591;52.532;13.348;2022-11-09T15:46:53;12.03;;;9.38;;
20861;SDS011;10591;52.532;13.348;2022-11-09T15:49:27;11.05;;;9.93;;
20861;SDS011;10591;52.532;13.348;2022-11-09T15:51:55;15.88;;;11.95;;
20861;SDS011;10591;52.532;13.348;2022-11-09T15:54:25;7.78;;;6.97;;
20861;SDS011;10591;52.532;13.348;2022-11-09T15:56:56;8.85;;;7.62;;
20861;SDS011;10591;52.532;13.348;2022-11-09T15:59:26;12.78;;;9.33;;
20861;SDS011;10591;52.532;13.348;2022-11-09T16:01:57;10.20;;;7.33;;
20861;SDS011;10591;52.532;13.348;2022-11-09T16:04:27;17.25;;;13.15;;
20861;SDS011;10591;52.532;13.348;2022-11-09T16:06:57;17.57;;;13.45;;
20861;SDS011;10591;52.532;13.348;2022-11-09T16:09:28;17.07;;;12.45;;
20861;SDS011;10591;52.532;13.348;2022-11-09T16:11:58;8.55;;;7.35;;
20861;SDS011;10591;52.532;13.348;2022-11-09T16:14:29;7.37;;;6.67;;
20861;SDS011;10591;52.532;13.348;2022-11-09T16:17:00;8.65;;;7.62;;
20861;SDS011;10591;52.532;13.348;2022-11-09T16:19:31;8.38;;;6.67;;
20861;SDS011;10591;52.532;13.348;2022-11-09T16:22:02;5.90;;;5.17;;
20861;SDS011;10591;52.532;13.348;2022-11-09T16:24:34;6.92;;;5.60;;
20861;SDS011;10591;52.532;13.348;2022-11-09T16:27:04;6.55;;;4.78;;
20861;SDS011;10591;52.532;13.348;2022-11-09T16:29:38;15.58;;;11.68;;
20861;SDS011;10591;52.532;13.348;2022-11-09T16:32:09;8.28;;;6.22;;